sensor_id;sensor_type;location;lat;lon;timestamp;pressure;altitude;pressure_sealevel;temperature;humidity
41684;BME280;27369;52.030;4.586;2023-06-26T00:01:16;46678.47;;;-144.41;100.00
41684;BME280;27369;52.030;4.586;2023-06-26T00:03:42;40104.56;;;-144.41;100.00
41684;BME280;27369;52.030;4.586;2023-06-26T00:06:07;26737.88;;;-144.41;100.00
41684;BME280;27369;52.030;4.586;2023-06-26T00:08:32;14671.53;;;-144.41;100.00
41684;BME280;27369;52.030;4.586;2023-06-26T00:10:58;2392.34;;;-144.41;100.00
41684;BME280;27369;52.030;4.586;2023-06-26T00:13:24;-3357.91;;;-144.41;100.00
41684;BME280;27369;52.030;4.586;2023-06-26T00:15:50;-7353.03;;;-144.41;100.00
41684;BME280;27369;52.030;4.586;2023-06-26T00:18:16;-14832.66;;;-144.41;100.00
41684;BME280;27369;52.030;4.586;2023-06-26T00:20:41;-19064.66;;;-144.41;100.00
41684;BME280;27369;52.030;4.586;2023-06-26T00:23:07;-20807.34;;;-144.41;100.00
41684;BME280;27369;52.030;4.586;2023-06-26T00:25:33;-20807.34;;;-144.41;100.00
41684;BME280;27369;52.030;4.586;2023-06-26T00:27:59;-20807.34;;;-144.41;100.00
41684;BME280;27369;52.030;4.586;2023-06-26T00:30:24;-20807.34;;;-144.41;100.00
41684;BME280;27369;52.030;4.586;2023-06-26T00:32:50;-20807.34;;;-144.41;100.00
41684;BME280;27369;52.030;4.586;2023-06-26T00:35:16;-20807.34;;;-144.41;100.00
41684;BME280;27369;52.030;4.586;2023-06-26T00:37:41;-20807.34;;;-144.41;100.00
41684;BME280;27369;52.030;4.586;2023-06-26T00:40:07;-20807.34;;;-144.41;100.00
41684;BME280;27369;52.030;4.586;2023-06-26T00:42:32;-20807.34;;;-144.41;100.00
41684;BME280;27369;52.030;4.586;2023-06-26T00:44:58;-20807.34;;;-144.41;100.00
41684;BME280;27369;52.030;4.586;2023-06-26T00:47:23;-20807.34;;;-144.41;100.00
41684;BME280;27369;52.030;4.586;2023-06-26T00:49:49;-20807.34;;;-144.41;100.00
41684;BME280;27369;52.030;4.586;2023-06-26T00:52:14;-20807.34;;;-144.41;100.00
41684;BME280;27369;52.030;4.586;2023-06-26T00:54:42;-20807.34;;;-144.41;100.00
41684;BME280;27369;52.030;4.586;2023-06-26T00:57:07;-20807.34;;;-144.41;100.00
41684;BME280;27369;52.030;4.586;2023-06-26T00:59:33;-20807.34;;;-144.41;100.00
41684;BME280;27369;52.030;4.586;2023-06-26T01:01:59;-20807.34;;;-144.41;100.00
41684;BME280;27369;52.030;4.586;2023-06-26T01:04:24;-20807.34;;;-144.41;100.00
41684;BME280;27369;52.030;4.586;2023-06-26T01:06:53;-20807.34;;;-144.41;100.00
41684;BME280;27369;52.030;4.586;2023-06-26T01:09:20;-20807.34;;;-144.41;100.00
41684;BME280;27369;52.030;4.586;2023-06-26T01:11:46;-20807.34;;;-144.41;100.00
41684;BME280;27369;52.030;4.586;2023-06-26T01:14:12;-20807.34;;;-144.41;100.00
41684;BME280;27369;52.030;4.586;2023-06-26T01:16:38;-20807.34;;;-144.41;100.00
41684;BME280;27369;52.030;4.586;2023-06-26T01:19:10;-20807.34;;;-144.41;100.00
41684;BME280;27369;52.030;4.586;2023-06-26T01:21:42;-20807.34;;;-144.41;100.00
41684;BME280;27369;52.030;4.586;2023-06-26T01:24:18;-20807.34;;;-144.41;100.00
41684;BME280;27369;52.030;4.586;2023-06-26T01:26:53;-20807.34;;;-144.41;100.00
41684;BME280;27369;52.030;4.586;2023-06-26T01:29:19;-20807.34;;;-144.41;100.00
41684;BME280;27369;52.030;4.586;2023-06-26T01:31:46;-20807.34;;;-144.41;100.00
41684;BME280;27369;52.030;4.586;2023-06-26T01:34:17;-20807.34;;;-144.41;100.00
41684;BME280;27369;52.030;4.586;2023-06-26T01:36:45;-20807.34;;;-144.41;100.00
41684;BME280;27369;52.030;4.586;2023-06-26T01:39:14;-20807.34;;;-144.41;100.00
41684;BME280;27369;52.030;4.586;2023-06-26T01:41:40;-20807.34;;;-144.41;100.00
41684;BME280;27369;52.030;4.586;2023-06-26T01:49:31;-20807.34;;;-144.41;100.00
41684;BME280;27369;52.030;4.586;2023-06-26T01:54:30;-20807.34;;;-144.41;100.00
41684;BME280;27369;52.030;4.586;2023-06-26T01:56:59;-20807.34;;;-144.41;100.00
41684;BME280;27369;52.030;4.586;2023-06-26T01:59:25;-20807.34;;;-144.41;100.00
41684;BME280;27369;52.030;4.586;2023-06-26T02:01:52;-20807.34;;;-144.41;100.00
41684;BME280;27369;52.030;4.586;2023-06-26T02:04:18;-20807.34;;;-144.41;100.00
41684;BME280;27369;52.030;4.586;2023-06-26T02:06:43;-20807.34;;;-144.41;100.00
41684;BME280;27369;52.030;4.586;2023-06-26T02:09:08;-20807.34;;;-144.41;100.00
41684;BME280;27369;52.030;4.586;2023-06-26T02:11:34;-20807.34;;;-144.41;100.00
41684;BME280;27369;52.030;4.586;2023-06-26T02:13:59;-20807.34;;;-144.41;100.00
41684;BME280;27369;52.030;4.586;2023-06-26T02:16:24;-20807.34;;;-144.41;100.00
41684;BME280;27369;52.030;4.586;2023-06-26T02:18:50;-20807.34;;;-144.41;100.00
41684;BME280;27369;52.030;4.586;2023-06-26T02:21:15;-20807.34;;;-144.41;100.00
41684;BME280;27369;52.030;4.586;2023-06-26T02:23:41;-20807.34;;;-144.41;100.00
41684;BME280;27369;52.030;4.586;2023-06-26T02:26:06;-20807.34;;;-144.41;100.00
41684;BME280;27369;52.030;4.586;2023-06-26T02:28:32;-20807.34;;;-144.41;100.00
41684;BME280;27369;52.030;4.586;2023-06-26T02:30:59;-20807.34;;;-144.41;100.00
41684;BME280;27369;52.030;4.586;2023-06-26T02:33:24;-20807.34;;;-144.41;100.00
41684;BME280;27369;52.030;4.586;2023-06-26T02:35:49;-20807.34;;;-144.41;100.00
41684;BME280;27369;52.030;4.586;2023-06-26T02:38:18;-20807.34;;;-144.41;100.00
41684;BME280;27369;52.030;4.586;2023-06-26T02:40:43;-20807.34;;;-144.41;100.00
41684;BME280;27369;52.030;4.586;2023-06-26T02:43:09;-20807.34;;;-144.41;100.00
41684;BME280;27369;52.030;4.586;2023-06-26T02:45:34;-20807.34;;;-144.41;100.00
41684;BME280;27369;52.030;4.586;2023-06-26T02:48:00;-20807.34;;;-144.41;100.00
41684;BME280;27369;52.030;4.586;2023-06-26T02:50:25;-20807.34;;;-144.41;100.00
41684;BME280;27369;52.030;4.586;2023-06-26T02:52:50;-20807.34;;;-144.41;100.00
41684;BME280;27369;52.030;4.586;2023-06-26T02:55:18;-20807.34;;;-144.41;100.00
41684;BME280;27369;52.030;4.586;2023-06-26T02:57:44;-20807.34;;;-144.41;100.00
41684;BME280;27369;52.030;4.586;2023-06-26T03:00:10;-20807.34;;;-144.41;100.00
41684;BME280;27369;52.030;4.586;2023-06-26T03:02:36;-20807.34;;;-144.41;100.00
41684;BME280;27369;52.030;4.586;2023-06-26T03:05:01;-20807.34;;;-144.41;100.00
41684;BME280;27369;52.030;4.586;2023-06-26T03:07:28;-20807.34;;;-144.41;100.00
41684;BME280;27369;52.030;4.586;2023-06-26T03:09:53;-20807.34;;;-144.41;100.00
41684;BME280;27369;52.030;4.586;2023-06-26T03:12:19;-20807.34;;;-144.41;100.00
41684;BME280;27369;52.030;4.586;2023-06-26T03:14:44;-20807.34;;;-144.41;100.00
41684;BME280;27369;52.030;4.586;2023-06-26T03:17:09;-20807.34;;;-144.41;100.00
41684;BME280;27369;52.030;4.586;2023-06-26T03:19:35;-20807.34;;;-144.41;100.00
41684;BME280;27369;52.030;4.586;2023-06-26T03:22:00;-20807.34;;;-144.41;100.00
41684;BME280;27369;52.030;4.586;2023-06-26T03:24:26;-20807.34;;;-144.41;100.00
41684;BME280;27369;52.030;4.586;2023-06-26T03:26:51;-20807.34;;;-144.41;100.00
41684;BME280;27369;52.030;4.586;2023-06-26T03:29:16;-20807.34;;;-144.41;100.00
41684;BME280;27369;52.030;4.586;2023-06-26T03:31:42;-20807.34;;;-144.41;100.00
41684;BME280;27369;52.030;4.586;2023-06-26T03:34:07;-20807.34;;;-144.41;100.00
41684;BME280;27369;52.030;4.586;2023-06-26T03:36:33;-20807.34;;;-144.41;100.00
41684;BME280;27369;52.030;4.586;2023-06-26T03:38:58;-20807.34;;;-144.41;100.00
41684;BME280;27369;52.030;4.586;2023-06-26T03:41:25;-20807.34;;;-144.41;100.00
41684;BME280;27369;52.030;4.586;2023-06-26T03:43:50;-20807.34;;;-144.41;100.00
41684;BME280;27369;52.030;4.586;2023-06-26T03:46:16;-20807.34;;;-144.41;100.00
41684;BME280;27369;52.030;4.586;2023-06-26T03:48:41;-20807.34;;;-144.41;100.00
41684;BME280;27369;52.030;4.586;2023-06-26T03:51:07;-20807.34;;;-144.41;100.00
41684;BME280;27369;52.030;4.586;2023-06-26T03:53:33;-20807.34;;;-144.41;100.00
41684;BME280;27369;52.030;4.586;2023-06-26T03:55:59;-20807.34;;;-144.41;100.00
41684;BME280;27369;52.030;4.586;2023-06-26T03:58:24;-20807.34;;;-144.41;100.00
41684;BME280;27369;52.030;4.586;2023-06-26T04:00:50;-20807.34;;;-144.41;100.00
41684;BME280;27369;52.030;4.586;2023-06-26T04:03:16;-20807.34;;;-144.41;100.00
41684;BME280;27369;52.030;4.586;2023-06-26T04:05:41;-20807.34;;;-144.41;100.00
41684;BME280;27369;52.030;4.586;2023-06-26T04:08:07;-20807.34;;;-144.41;100.00
41684;BME280;27369;52.030;4.586;2023-06-26T04:10:33;-20807.34;;;-144.41;100.00
41684;BME280;27369;52.030;4.586;2023-06-26T04:12:58;-20807.34;;;-144.41;100.00
41684;BME280;27369;52.030;4.586;2023-06-26T04:15:24;-20807.34;;;-144.41;100.00
41684;BME280;27369;52.030;4.586;2023-06-26T04:17:49;-20807.34;;;-144.41;100.00
41684;BME280;27369;52.030;4.586;2023-06-26T04:20:14;-20807.34;;;-144.41;100.00
41684;BME280;27369;52.030;4.586;2023-06-26T04:22:40;-20807.34;;;-144.41;100.00
41684;BME280;27369;52.030;4.586;2023-06-26T04:25:05;-20807.34;;;-144.41;100.00
41684;BME280;27369;52.030;4.586;2023-06-26T04:27:31;-20807.34;;;-144.41;100.00
41684;BME280;27369;52.030;4.586;2023-06-26T04:29:56;-20807.34;;;-144.41;100.00
41684;BME280;27369;52.030;4.586;2023-06-26T04:32:22;-20807.34;;;-144.41;100.00
41684;BME280;27369;52.030;4.586;2023-06-26T04:34:47;-20807.34;;;-144.41;100.00
41684;BME280;27369;52.030;4.586;2023-06-26T04:37:13;-20807.34;;;-144.41;100.00
41684;BME280;27369;52.030;4.586;2023-06-26T04:39:41;-20807.34;;;-144.41;100.00
41684;BME280;27369;52.030;4.586;2023-06-26T04:42:07;-20807.34;;;-144.41;100.00
41684;BME280;27369;52.030;4.586;2023-06-26T04:44:32;-20807.34;;;-144.41;100.00
41684;BME280;27369;52.030;4.586;2023-06-26T04:46:58;-20807.34;;;-144.41;100.00
41684;BME280;27369;52.030;4.586;2023-06-26T04:49:23;-20807.34;;;-144.41;100.00
41684;BME280;27369;52.030;4.586;2023-06-26T04:51:49;-20807.34;;;-144.41;100.00
41684;BME280;27369;52.030;4.586;2023-06-26T04:54:16;-20807.34;;;-144.41;100.00
41684;BME280;27369;52.030;4.586;2023-06-26T04:56:41;-20807.34;;;-144.41;100.00
41684;BME280;27369;52.030;4.586;2023-06-26T04:59:07;-20807.34;;;-144.41;100.00
41684;BME280;27369;52.030;4.586;2023-06-26T05:01:38;-20807.34;;;-144.41;100.00
41684;BME280;27369;52.030;4.586;2023-06-26T05:04:07;-20807.34;;;-144.41;100.00
41684;BME280;27369;52.030;4.586;2023-06-26T05:06:32;-20807.34;;;-144.41;100.00
41684;BME280;27369;52.030;4.586;2023-06-26T05:08:58;-20807.34;;;-144.41;100.00
41684;BME280;27369;52.030;4.586;2023-06-26T05:11:24;-20807.34;;;-144.41;100.00
41684;BME280;27369;52.030;4.586;2023-06-26T05:13:50;-20807.34;;;-144.41;100.00
41684;BME280;27369;52.030;4.586;2023-06-26T05:16:15;-20807.34;;;-144.41;100.00
41684;BME280;27369;52.030;4.586;2023-06-26T05:18:41;-20807.34;;;-144.41;100.00
41684;BME280;27369;52.030;4.586;2023-06-26T05:21:06;-20807.34;;;-144.41;100.00
41684;BME280;27369;52.030;4.586;2023-06-26T05:23:33;-20807.34;;;-144.41;100.00
41684;BME280;27369;52.030;4.586;2023-06-26T05:26:00;-20807.34;;;-144.41;100.00
41684;BME280;27369;52.030;4.586;2023-06-26T05:28:26;-20807.34;;;-144.41;100.00
41684;BME280;27369;52.030;4.586;2023-06-26T05:30:53;-20807.34;;;-144.41;100.00
41684;BME280;27369;52.030;4.586;2023-06-26T05:33:21;-20807.34;;;-144.41;100.00
41684;BME280;27369;52.030;4.586;2023-06-26T05:35:48;-20807.34;;;-144.41;100.00
41684;BME280;27369;52.030;4.586;2023-06-26T05:38:14;-20807.34;;;-144.41;100.00
41684;BME280;27369;52.030;4.586;2023-06-26T05:40:40;-20807.34;;;-144.41;100.00
41684;BME280;27369;52.030;4.586;2023-06-26T05:43:07;-20807.34;;;-144.41;100.00
41684;BME280;27369;52.030;4.586;2023-06-26T05:45:32;-20807.34;;;-144.41;100.00
41684;BME280;27369;52.030;4.586;2023-06-26T05:47:58;-20807.34;;;-144.41;100.00
41684;BME280;27369;52.030;4.586;2023-06-26T05:50:24;-20807.34;;;-144.41;100.00
41684;BME280;27369;52.030;4.586;2023-06-26T05:52:50;-20807.34;;;-144.41;100.00
41684;BME280;27369;52.030;4.586;2023-06-26T05:55:15;-20807.34;;;-144.41;100.00
41684;BME280;27369;52.030;4.586;2023-06-26T05:57:41;-20807.34;;;-144.41;100.00
41684;BME280;27369;52.030;4.586;2023-06-26T06:00:07;-20807.34;;;-144.41;100.00
41684;BME280;27369;52.030;4.586;2023-06-26T06:02:36;-20807.34;;;-144.41;100.00
41684;BME280;27369;52.030;4.586;2023-06-26T06:05:02;-20059.75;;;-144.41;100.00
41684;BME280;27369;52.030;4.586;2023-06-26T06:07:27;-18318.19;;;-144.41;100.00
41684;BME280;27369;52.030;4.586;2023-06-26T06:09:53;-17820.44;;;-144.41;100.00
41684;BME280;27369;52.030;4.586;2023-06-26T06:12:18;-17073.72;;;-144.41;100.00
41684;BME280;27369;52.030;4.586;2023-06-26T06:14:43;-15828.84;;;-144.41;100.00
41684;BME280;27369;52.030;4.586;2023-06-26T06:17:09;-20807.34;;;-144.41;100.00
41684;BME280;27369;52.030;4.586;2023-06-26T06:19:34;-20807.34;;;-144.41;100.00
41684;BME280;27369;52.030;4.586;2023-06-26T06:22:00;-20807.34;;;-144.41;100.00
41684;BME280;27369;52.030;4.586;2023-06-26T06:24:25;-20807.34;;;-144.41;100.00
41684;BME280;27369;52.030;4.586;2023-06-26T06:26:51;-20807.34;;;-144.41;100.00
41684;BME280;27369;52.030;4.586;2023-06-26T06:29:16;-20807.34;;;-144.41;100.00
41684;BME280;27369;52.030;4.586;2023-06-26T06:31:43;-20807.34;;;-144.41;100.00
41684;BME280;27369;52.030;4.586;2023-06-26T06:34:09;-20807.34;;;-144.41;100.00
41684;BME280;27369;52.030;4.586;2023-06-26T06:36:34;-20807.34;;;-144.41;100.00
41684;BME280;27369;52.030;4.586;2023-06-26T06:39:00;-20807.34;;;-144.41;100.00
41684;BME280;27369;52.030;4.586;2023-06-26T06:41:25;-20807.34;;;-144.41;100.00
41684;BME280;27369;52.030;4.586;2023-06-26T06:43:51;-20807.34;;;-144.41;100.00
41684;BME280;27369;52.030;4.586;2023-06-26T06:46:16;-20807.34;;;-144.41;100.00
41684;BME280;27369;52.030;4.586;2023-06-26T06:48:41;-20807.34;;;-144.41;100.00
41684;BME280;27369;52.030;4.586;2023-06-26T06:51:07;-20807.34;;;-144.41;100.00
41684;BME280;27369;52.030;4.586;2023-06-26T06:53:32;-20807.34;;;-144.41;100.00
41684;BME280;27369;52.030;4.586;2023-06-26T06:55:58;-20807.34;;;-144.41;100.00
41684;BME280;27369;52.030;4.586;2023-06-26T06:58:23;-19811.00;;;-144.41;100.00
41684;BME280;27369;52.030;4.586;2023-06-26T07:00:49;-12839.53;;;-144.41;100.00
41684;BME280;27369;52.030;4.586;2023-06-26T07:03:14;4144.13;;;-144.41;100.00
41684;BME280;27369;52.030;4.586;2023-06-26T07:05:43;3143.03;;;-144.41;100.00
41684;BME280;27369;52.030;4.586;2023-06-26T07:08:08;391.28;;;-144.41;100.00
41684;BME280;27369;52.030;4.586;2023-06-26T07:10:34;2142.16;;;-144.41;100.00
41684;BME280;27369;52.030;4.586;2023-06-26T07:12:59;-608.84;;;-144.41;100.00
41684;BME280;27369;52.030;4.586;2023-06-26T07:15:24;7399.56;;;-144.41;100.00
41684;BME280;27369;52.030;4.586;2023-06-26T07:17:50;18689.47;;;-144.41;100.00
41684;BME280;27369;52.030;4.586;2023-06-26T07:20:15;37326.59;;;-144.41;100.00
41684;BME280;27369;52.030;4.586;2023-06-26T07:22:41;70282.63;;;-144.41;100.00
41684;BME280;27369;52.030;4.586;2023-06-26T07:25:07;68755.53;;;-144.41;100.00
41684;BME280;27369;52.030;4.586;2023-06-26T07:27:56;67992.22;;;-144.41;100.00
41684;BME280;27369;52.030;4.586;2023-06-26T07:30:39;64686.16;;;-144.41;100.00
41684;BME280;27369;52.030;4.586;2023-06-26T07:33:05;72319.63;;;-144.41;100.00
41684;BME280;27369;52.030;4.586;2023-06-26T07:35:31;91979.06;;;-144.41;100.00
41684;BME280;27369;52.030;4.586;2023-06-26T07:37:56;89676.25;;;-144.41;100.00
41684;BME280;27369;52.030;4.586;2023-06-26T07:40:22;88141.75;;;-144.41;100.00
41684;BME280;27369;52.030;4.586;2023-06-26T07:42:47;86863.47;;;-144.41;100.00
41684;BME280;27369;52.030;4.586;2023-06-26T07:45:13;94027.13;;;-144.41;100.00
41684;BME280;27369;52.030;4.586;2023-06-26T07:47:38;102486.31;;;-144.41;100.00
41684;BME280;27369;52.030;4.586;2023-06-26T07:50:04;108647.53;;;-144.41;100.00
41684;BME280;27369;52.030;4.586;2023-06-26T07:52:30;108647.53;;;-144.41;100.00
41684;BME280;27369;52.030;4.586;2023-06-26T07:54:56;93002.97;;;-144.41;100.00
41684;BME280;27369;52.030;4.586;2023-06-26T07:57:21;62144.94;;;-144.41;100.00
41684;BME280;27369;52.030;4.586;2023-06-26T07:59:46;59859.19;;;-144.41;100.00
41684;BME280;27369;52.030;4.586;2023-06-26T08:02:12;55291.66;;;-144.41;100.00
41684;BME280;27369;52.030;4.586;2023-06-26T08:04:37;55798.91;;;-144.41;100.00
41684;BME280;27369;52.030;4.586;2023-06-26T08:07:03;54530.94;;;-144.41;100.00
41684;BME280;27369;52.030;4.586;2023-06-26T08:09:29;54784.50;;;-144.41;100.00
41684;BME280;27369;52.030;4.586;2023-06-26T08:11:56;59097.56;;;-144.41;100.00
41684;BME280;27369;52.030;4.586;2023-06-26T08:14:21;59351.44;;;-144.41;100.00
41684;BME280;27369;52.030;4.586;2023-06-26T08:16:47;71810.28;;;-144.41;100.00
41684;BME280;27369;52.030;4.586;2023-06-26T08:19:13;85330.06;;;-144.41;100.00
41684;BME280;27369;52.030;4.586;2023-06-26T08:21:40;86096.69;;;-144.41;100.00
41684;BME280;27369;52.030;4.586;2023-06-26T08:24:05;84563.56;;;-144.41;100.00
41684;BME280;27369;52.030;4.586;2023-06-26T08:26:31;75377.13;;;-144.41;100.00
41684;BME280;27369;52.030;4.586;2023-06-26T08:28:56;79712.53;;;-144.41;100.00
41684;BME280;27369;52.030;4.586;2023-06-26T08:31:21;89932.03;;;-144.41;100.00
41684;BME280;27369;52.030;4.586;2023-06-26T08:33:47;90443.69;;;-144.41;100.00
41684;BME280;27369;52.030;4.586;2023-06-26T08:36:12;81754.38;;;-144.41;100.00
41684;BME280;27369;52.030;4.586;2023-06-26T08:38:38;86607.84;;;-144.41;100.00
41684;BME280;27369;52.030;4.586;2023-06-26T08:41:06;96332.41;;;-144.41;100.00
41684;BME280;27369;52.030;4.586;2023-06-26T08:43:32;108647.53;;;-144.41;100.00
41684;BME280;27369;52.030;4.586;2023-06-26T08:45:57;108647.53;;;-144.41;100.00
41684;BME280;27369;52.030;4.586;2023-06-26T08:48:23;108647.53;;;-144.41;100.00
41684;BME280;27369;52.030;4.586;2023-06-26T08:50:49;108647.53;;;-144.41;100.00
41684;BME280;27369;52.030;4.586;2023-06-26T08:53:29;108645.53;;;-144.41;100.00
41684;BME280;27369;52.030;4.586;2023-06-26T08:55:59;108388.56;;;-144.41;100.00
41684;BME280;27369;52.030;4.586;2023-06-26T08:58:25;108131.56;;;-144.41;100.00
41684;BME280;27369;52.030;4.586;2023-06-26T09:00:51;106076.38;;;-144.41;100.00
41684;BME280;27369;52.030;4.586;2023-06-26T09:03:17;105562.75;;;-144.41;100.00
41684;BME280;27369;52.030;4.586;2023-06-26T09:05:42;105819.56;;;-144.41;100.00
41684;BME280;27369;52.030;4.586;2023-06-26T09:08:08;105562.75;;;-144.41;100.00
41684;BME280;27369;52.030;4.586;2023-06-26T09:10:33;104535.69;;;-144.41;100.00
41684;BME280;27369;52.030;4.586;2023-06-26T09:12:59;103252.19;;;-144.41;100.00
41684;BME280;27369;52.030;4.586;2023-06-26T09:15:26;102482.31;;;-144.41;100.00
41684;BME280;27369;52.030;4.586;2023-06-26T09:17:56;102995.56;;;-144.41;100.00
41684;BME280;27369;52.030;4.586;2023-06-26T09:20:22;102482.31;;;-144.41;100.00
41684;BME280;27369;52.030;4.586;2023-06-26T09:22:48;102995.56;;;-144.41;100.00
41684;BME280;27369;52.030;4.586;2023-06-26T09:25:14;100686.44;;;-144.41;100.00
41684;BME280;27369;52.030;4.586;2023-06-26T09:27:39;99660.59;;;-144.41;100.00
41684;BME280;27369;52.030;4.586;2023-06-26T09:30:05;99147.78;;;-144.41;100.00
41684;BME280;27369;52.030;4.586;2023-06-26T09:32:35;99917.03;;;-144.41;100.00
41684;BME280;27369;52.030;4.586;2023-06-26T09:35:04;98635.03;;;-144.41;100.00
41684;BME280;27369;52.030;4.586;2023-06-26T09:37:29;96840.88;;;-144.41;100.00
41684;BME280;27369;52.030;4.586;2023-06-26T09:39:55;97866.00;;;-144.41;100.00
41684;BME280;27369;52.030;4.586;2023-06-26T09:42:20;97609.69;;;-144.41;100.00
41684;BME280;27369;52.030;4.586;2023-06-26T09:44:46;97097.13;;;-144.41;100.00
41684;BME280;27369;52.030;4.586;2023-06-26T09:47:12;98122.31;;;-144.41;100.00
41684;BME280;27369;52.030;4.586;2023-06-26T09:49:41;98378.66;;;-144.41;100.00
41684;BME280;27369;52.030;4.586;2023-06-26T09:52:10;97866.00;;;-144.41;100.00
41684;BME280;27369;52.030;4.586;2023-06-26T09:54:38;97866.00;;;-144.41;100.00
41684;BME280;27369;52.030;4.586;2023-06-26T09:57:10;96844.88;;;-144.41;100.00
41684;BME280;27369;52.030;4.586;2023-06-26T09:59:35;96072.19;;;-144.41;100.00
41684;BME280;27369;52.030;4.586;2023-06-26T10:02:01;97067.09;;;-144.41;100.00
41684;BME280;27369;52.030;4.586;2023-06-26T10:04:27;96080.22;;;-144.41;100.00
41684;BME280;27369;52.030;4.586;2023-06-26T10:06:54;95816.00;;;-144.41;100.00
41684;BME280;27369;52.030;4.586;2023-06-26T10:09:22;95303.66;;;-144.41;100.00
41684;BME280;27369;52.030;4.586;2023-06-26T10:11:54;92486.97;;;-144.41;100.00
41684;BME280;27369;52.030;4.586;2023-06-26T10:14:27;93252.97;;;-144.41;100.00
41684;BME280;27369;52.030;4.586;2023-06-26T10:16:57;93174.97;;;-144.41;100.00
41684;BME280;27369;52.030;4.586;2023-06-26T10:19:24;91463.22;;;-144.41;100.00
41684;BME280;27369;52.030;4.586;2023-06-26T10:21:53;88649.19;;;-144.41;100.00
41684;BME280;27369;52.030;4.586;2023-06-26T10:24:19;89416.47;;;-144.41;100.00
41684;BME280;27369;52.030;4.586;2023-06-26T10:26:48;84559.56;;;-144.41;100.00
41684;BME280;27369;52.030;4.586;2023-06-26T10:29:16;82261.00;;;-144.41;100.00
41684;BME280;27369;52.030;4.586;2023-06-26T10:31:45;88137.75;;;-144.41;100.00
41684;BME280;27369;52.030;4.586;2023-06-26T10:34:12;86603.88;;;-144.41;100.00
41684;BME280;27369;52.030;4.586;2023-06-26T10:36:38;80218.91;;;-144.41;100.00
41684;BME280;27369;52.030;4.586;2023-06-26T10:39:04;77412.75;;;-144.41;100.00
41684;BME280;27369;52.030;4.586;2023-06-26T10:41:42;73079.81;;;-144.41;100.00
41684;BME280;27369;52.030;4.586;2023-06-26T10:44:15;70533.22;;;-144.41;100.00
41684;BME280;27369;52.030;4.586;2023-06-26T10:46:55;67479.44;;;-144.41;100.00
41684;BME280;27369;52.030;4.586;2023-06-26T10:49:26;66462.03;;;-144.41;100.00
41684;BME280;27369;52.030;4.586;2023-06-26T10:51:53;62903.16;;;-144.41;100.00
41684;BME280;27369;52.030;4.586;2023-06-26T10:54:20;56238.84;;;-144.41;100.00
41684;BME280;27369;52.030;4.586;2023-06-26T10:56:48;54748.84;;;-144.41;100.00
41684;BME280;27369;52.030;4.586;2023-06-26T11:01:46;48644.06;;;-144.41;100.00
41684;BME280;27369;52.030;4.586;2023-06-26T11:04:13;47874.72;;;-144.41;100.00
41684;BME280;27369;52.030;4.586;2023-06-26T11:06:45;46915.72;;;-144.41;100.00
41684;BME280;27369;52.030;4.586;2023-06-26T11:09:14;45547.81;;;-144.41;100.00
41684;BME280;27369;52.030;4.586;2023-06-26T11:14:21;42927.94;;;-144.41;100.00
41684;BME280;27369;52.030;4.586;2023-06-26T11:16:48;43530.41;;;-144.41;100.00
41684;BME280;27369;52.030;4.586;2023-06-26T11:19:16;40943.47;;;-144.41;100.00
41684;BME280;27369;52.030;4.586;2023-06-26T11:21:42;40264.44;;;-144.41;100.00
41684;BME280;27369;52.030;4.586;2023-06-26T11:24:07;40412.47;;;-144.41;100.00
41684;BME280;27369;52.030;4.586;2023-06-26T11:26:40;39923.00;;;-144.41;100.00
41684;BME280;27369;52.030;4.586;2023-06-26T11:29:06;39504.59;;;-144.41;100.00
41684;BME280;27369;52.030;4.586;2023-06-26T11:31:32;39111.91;;;-144.41;100.00
41684;BME280;27369;52.030;4.586;2023-06-26T11:33:59;38918.56;;;-144.41;100.00
41684;BME280;27369;52.030;4.586;2023-06-26T11:36:26;39157.31;;;-144.41;100.00
41684;BME280;27369;52.030;4.586;2023-06-26T11:38:53;38571.31;;;-144.41;100.00
41684;BME280;27369;52.030;4.586;2023-06-26T11:41:19;38541.72;;;-144.41;100.00
41684;BME280;27369;52.030;4.586;2023-06-26T11:43:44;38310.88;;;-144.41;100.00
41684;BME280;27369;52.030;4.586;2023-06-26T11:46:10;38245.78;;;-144.41;100.00
41684;BME280;27369;52.030;4.586;2023-06-26T11:48:35;38464.78;;;-144.41;100.00
41684;BME280;27369;52.030;4.586;2023-06-26T11:51:04;38312.88;;;-144.41;100.00
41684;BME280;27369;52.030;4.586;2023-06-26T11:53:30;38429.25;;;-144.41;100.00
41684;BME280;27369;52.030;4.586;2023-06-26T11:55:56;38555.53;;;-144.41;100.00
41684;BME280;27369;52.030;4.586;2023-06-26T11:58:22;38537.78;;;-144.41;100.00
41684;BME280;27369;52.030;4.586;2023-06-26T12:00:48;38654.16;;;-144.41;100.00
41684;BME280;27369;52.030;4.586;2023-06-26T12:03:13;38107.69;;;-144.41;100.00
41684;BME280;27369;52.030;4.586;2023-06-26T12:05:39;38172.78;;;-144.41;100.00
41684;BME280;27369;52.030;4.586;2023-06-26T12:08:05;37991.31;;;-144.41;100.00
41684;BME280;27369;52.030;4.586;2023-06-26T12:10:33;37957.78;;;-144.41;100.00
41684;BME280;27369;52.030;4.586;2023-06-26T12:12:58;37677.69;;;-144.41;100.00
41684;BME280;27369;52.030;4.586;2023-06-26T12:15:27;37780.25;;;-144.41;100.00
41684;BME280;27369;52.030;4.586;2023-06-26T12:17:53;37454.78;;;-144.41;100.00
41684;BME280;27369;52.030;4.586;2023-06-26T12:20:21;37488.31;;;-144.41;100.00
41684;BME280;27369;52.030;4.586;2023-06-26T12:22:48;37567.22;;;-144.41;100.00
41684;BME280;27369;52.030;4.586;2023-06-26T12:25:14;37377.88;;;-144.41;100.00
41684;BME280;27369;52.030;4.586;2023-06-26T12:27:40;37646.13;;;-144.41;100.00
41684;BME280;27369;52.030;4.586;2023-06-26T12:30:06;37646.13;;;-144.41;100.00
41684;BME280;27369;52.030;4.586;2023-06-26T12:32:31;37510.03;;;-144.41;100.00
41684;BME280;27369;52.030;4.586;2023-06-26T12:34:57;37742.78;;;-144.41;100.00